This is the latest recevied weather packets stored in our database for station/object IZ5MMH-14. If no packets are shown the sender has not sent any weather packets the latest 10 day(s).
| Time | Temp. | Humidity | Pressure | Rain* | Wind** | Luminosity | Snow |
|---|---|---|---|---|---|---|---|
| 1777526998 | 18.33° C | 83% | 1017.7 hPa | - | - | - | - |
| 1777526398 | 18.33° C | 82% | 1017.6 hPa | - | - | - | - |
| 1777525798 | 17.78° C | 83% | 1017.4 hPa | - | - | - | - |
| 1777525198 | 17.22° C | 85% | 1017.2 hPa | - | - | - | - |
| 1777524598 | 16.67° C | 86% | 1017.1 hPa | - | - | - | - |
| 1777523998 | 16.67° C | 85% | 1016.9 hPa | - | - | - | - |
| 1777523398 | 16.11° C | 85% | 1016.9 hPa | - | - | - | - |
| 1777522798 | 16.11° C | 84% | 1016.8 hPa | - | - | - | - |
| 1777522198 | 16.67° C | 80% | 1017 hPa | - | - | - | - |
| 1777521598 | 16.11° C | 80% | 1016.9 hPa | - | - | - | - |
| 1777520998 | 16.11° C | 78% | 1016.8 hPa | - | - | - | - |
| 1777520398 | 16.11° C | 77% | 1016.7 hPa | - | - | - | - |
| 1777519798 | 16.11° C | 77% | 1016.6 hPa | - | - | - | - |
| 1777519198 | 16.11° C | 75% | 1016.7 hPa | - | - | - | - |
| 1777518598 | 16.11° C | 75% | 1016.7 hPa | - | - | - | - |
| 1777517998 | 16.11° C | 75% | 1016.7 hPa | - | - | - | - |
| 1777517398 | 16.67° C | 73% | 1016.8 hPa | - | - | - | - |
| 1777516798 | 16.11° C | 75% | 1016.7 hPa | - | - | - | - |
| 1777516198 | 16.11° C | 78% | 1016.7 hPa | - | - | - | - |
| 1777515598 | 16.11° C | 80% | 1016.6 hPa | - | - | - | - |
| 1777514998 | 15.56° C | 81% | 1016.5 hPa | - | - | - | - |
| 1777514398 | 15.56° C | 80% | 1016.5 hPa | - | - | - | - |
| 1777513798 | 16.11° C | 79% | 1016.5 hPa | - | - | - | - |
| 1777513198 | 16.11° C | 79% | 1016.3 hPa | - | - | - | - |
| 1777512598 | 16.11° C | 81% | 1016.3 hPa | - | - | - | - |
* Rain since midnight (hover to see other rain measurements)
** Current wind speed in m/s (hover to see current wind gust speed)